Time;durP1;ratioP1;P1;durP2;ratioP2;P2;SDS_P1;SDS_P2;PMS_P1;PMS_P2;Temp;Humidity;BMP_temperature;BMP_pressure;BME280_temperature;BME280_humidity;BME280_pressure;Samples;Min_cycle;Max_cycle;Signal;HPM_P1;HPM_P2
2023/02/24 00:02:04;;;;;;;23.52;3.10;;;4.60;99.90;;;;;;5057852;28;25054;-86
2023/02/24 00:04:34;;;;;;;12.55;2.63;;;4.60;99.90;;;;;;5057490;28;25063;-86
2023/02/24 00:07:02;;;;;;;22.33;2.55;;;4.60;99.90;;;;;;5058046;28;25210;-86
2023/02/24 00:09:32;;;;;;;24.48;4.15;;;4.50;99.90;;;;;;5058035;28;25065;-86
2023/02/24 00:12:11;;;;;;;12.50;3.03;;;4.50;99.90;;;;;;5041032;28;25114;-86
2023/02/24 00:14:41;;;;;;;16.48;2.65;;;4.50;99.90;;;;;;5058519;28;25070;-86
2023/02/24 00:17:09;;;;;;;22.02;3.10;;;4.40;99.90;;;;;;5040957;28;25056;-86
2023/02/24 00:19:37;;;;;;;16.25;2.83;;;4.40;99.90;;;;;;5058749;28;25058;-86
2023/02/24 00:22:06;;;;;;;18.10;2.95;;;4.40;99.90;;;;;;5040863;28;25086;-85
2023/02/24 00:24:34;;;;;;;19.02;2.85;;;4.40;99.90;;;;;;5040786;28;25061;-85
2023/02/24 00:27:06;;;;;;;23.85;3.95;;;4.40;99.90;;;;;;5040658;28;25078;-85
2023/02/24 00:29:36;;;;;;;23.88;3.42;;;4.30;99.90;;;;;;5058290;28;25141;-86
2023/02/24 00:32:06;;;;;;;24.42;3.50;;;4.30;99.90;;;;;;5058565;28;25069;-86
2023/02/24 00:34:36;;;;;;;17.77;2.25;;;4.30;99.90;;;;;;5058103;28;25061;-85
2023/02/24 00:37:07;;;;;;;17.73;3.20;;;4.20;99.90;;;;;;5040559;28;25093;-86
2023/02/24 00:39:35;;;;;;;13.63;2.45;;;4.20;99.90;;;;;;5041085;28;25072;-86
2023/02/24 00:42:05;;;;;;;21.80;2.65;;;4.00;99.90;;;;;;5039908;28;25066;-86
2023/02/24 00:44:44;;;;;;;10.68;2.38;;;3.90;99.90;;;;;;5058070;28;25062;-86
2023/02/24 00:47:12;;;;;;;24.08;3.00;;;3.80;99.90;;;;;;5058169;28;25073;-86
2023/02/24 00:49:43;;;;;;;22.02;3.20;;;3.70;99.90;;;;;;5040459;28;25065;-86
2023/02/24 00:52:17;;;;;;;21.52;3.72;;;3.60;99.90;;;;;;5059257;28;25057;-86
2023/02/24 00:54:45;;;;;;;17.38;2.42;;;3.50;99.90;;;;;;5040201;28;25063;-86
2023/02/24 00:57:13;;;;;;;26.77;3.80;;;3.40;99.90;;;;;;5057643;28;25126;-86
2023/02/24 00:59:41;;;;;;;14.38;2.50;;;3.30;99.90;;;;;;5039703;28;25124;-86
2023/02/24 01:02:10;;;;;;;10.82;2.30;;;3.20;99.90;;;;;;5040091;28;25058;-87
2023/02/24 01:04:37;;;;;;;16.33;2.85;;;3.10;99.90;;;;;;5057866;28;25116;-86
2023/02/24 01:07:09;;;;;;;14.80;2.60;;;3.10;99.90;;;;;;5040054;28;25100;-86
2023/02/24 01:09:38;;;;;;;16.15;2.38;;;3.00;99.90;;;;;;5045092;28;25074;-86
2023/02/24 01:12:37;;;;;;;20.08;2.42;;;3.00;99.90;;;;;;5056904;28;25055;-86
2023/02/24 01:15:08;;;;;;;14.20;3.10;;;3.00;99.90;;;;;;5057797;28;25137;-86
2023/02/24 01:17:36;;;;;;;14.25;1.85;;;3.00;99.90;;;;;;5057370;28;25103;-86
2023/02/24 01:20:17;;;;;;;14.98;2.70;;;3.00;99.90;;;;;;5057300;28;25112;-86
2023/02/24 01:22:52;;;;;;;25.25;3.53;;;3.10;99.90;;;;;;5056381;28;25107;-86
2023/02/24 01:25:19;;;;;;;17.02;4.32;;;3.10;99.90;;;;;;5056289;28;25073;-86
2023/02/24 01:27:47;;;;;;;20.42;3.30;;;3.10;99.90;;;;;;5057447;28;25063;-86
2023/02/24 01:30:18;;;;;;;22.13;5.32;;;3.20;99.90;;;;;;5056265;28;25054;-86
2023/02/24 01:32:45;;;;;;;15.15;2.80;;;3.20;99.90;;;;;;5056179;28;25134;-87
2023/02/24 01:35:13;;;;;;;13.95;2.47;;;3.30;99.90;;;;;;5057135;28;25081;-86
2023/02/24 01:37:41;;;;;;;18.02;2.60;;;3.30;99.90;;;;;;5057341;28;25050;-86
2023/02/24 01:40:19;;;;;;;27.75;2.67;;;3.30;99.90;;;;;;5057217;28;25076;-86
2023/02/24 01:42:48;;;;;;;19.17;2.63;;;3.40;99.90;;;;;;5055789;28;25050;-86
2023/02/24 01:45:20;;;;;;;17.20;3.63;;;3.40;99.90;;;;;;5056874;28;25056;-86
2023/02/24 01:47:49;;;;;;;15.35;2.70;;;3.40;99.90;;;;;;5055773;28;25126;-86
2023/02/24 01:50:20;;;;;;;23.25;3.15;;;3.50;99.90;;;;;;5055976;28;25053;-86
2023/02/24 01:52:51;;;;;;;19.85;2.97;;;3.50;99.90;;;;;;5056889;28;25104;-86
2023/02/24 01:55:32;;;;;;;24.50;3.83;;;3.60;99.90;;;;;;5055810;28;25134;-86
2023/02/24 01:58:05;;;;;;;15.70;3.03;;;3.60;99.90;;;;;;5055699;28;25092;-86
2023/02/24 02:00:36;;;;;;;27.75;4.20;;;3.60;99.90;;;;;;5056566;28;25101;-85
2023/02/24 02:03:31;;;;;;;21.60;2.95;;;3.60;99.90;;;;;;5055691;28;25110;-86
2023/02/24 02:06:06;;;;;;;21.98;3.28;;;3.60;99.90;;;;;;5054569;28;25066;-86
2023/02/24 02:08:36;;;;;;;15.63;3.40;;;3.70;99.90;;;;;;5056629;28;25126;-86
2023/02/24 02:11:07;;;;;;;19.40;3.92;;;3.60;99.90;;;;;;5057004;28;25055;-86
2023/02/24 02:13:36;;;;;;;20.00;4.30;;;3.60;99.90;;;;;;5038784;28;25069;-86
2023/02/24 02:16:25;;;;;;;16.67;2.72;;;3.60;99.90;;;;;;5039200;28;25119;-86
2023/02/24 02:18:57;;;;;;;18.67;3.33;;;3.70;99.90;;;;;;5056802;28;25050;-86
2023/02/24 02:21:53;;;;;;;23.58;3.60;;;3.70;99.90;;;;;;5039017;28;25061;-85
2023/02/24 02:24:39;;;;;;;26.08;4.10;;;3.70;99.90;;;;;;5056868;28;25061;-86
2023/02/24 02:27:28;;;;;;;17.98;3.20;;;3.70;99.90;;;;;;5056708;28;25086;-85
2023/02/24 02:30:16;;;;;;;23.95;4.63;;;3.70;99.90;;;;;;5038640;28;25056;-86
2023/02/24 02:33:00;;;;;;;16.80;3.13;;;3.70;99.90;;;;;;5038703;28;25064;-86
2023/02/24 02:35:59;;;;;;;23.95;4.25;;;3.70;99.90;;;;;;5056375;28;25158;-86
2023/02/24 02:38:41;;;;;;;21.95;4.15;;;3.60;99.90;;;;;;5039063;28;25128;-86
2023/02/24 02:41:46;;;;;;;23.15;4.22;;;3.70;99.90;;;;;;5038580;28;25114;-86
2023/02/24 02:44:38;;;;;;;17.95;3.55;;;3.60;99.90;;;;;;5052372;28;25101;-86
2023/02/24 02:47:14;;;;;;;15.65;3.92;;;3.60;99.90;;;;;;5039067;28;25055;-86
2023/02/24 02:49:48;;;;;;;25.83;4.05;;;3.60;99.90;;;;;;5038712;28;25176;-86
2023/02/24 02:52:52;;;;;;;18.08;4.35;;;3.60;99.90;;;;;;5055303;28;25083;-86
2023/02/24 02:55:41;;;;;;;15.35;3.03;;;3.60;99.90;;;;;;5038656;28;25065;-86
2023/02/24 02:58:18;;;;;;;25.65;3.72;;;3.60;99.90;;;;;;5054117;28;25134;-86
2023/02/24 03:01:01;;;;;;;15.13;3.17;;;3.60;99.90;;;;;;5038447;28;25072;-86
2023/02/24 03:03:41;;;;;;;17.75;3.47;;;3.60;99.90;;;;;;5039144;28;25094;-86
2023/02/24 03:06:21;;;;;;;16.02;2.85;;;3.60;99.90;;;;;;5042528;28;25132;-86
2023/02/24 03:08:59;;;;;;;22.58;5.22;;;3.60;99.90;;;;;;5041924;28;25056;-86
2023/02/24 03:11:27;;;;;;;21.73;3.97;;;3.60;99.90;;;;;;5042224;28;25116;-86
2023/02/24 03:13:57;;;;;;;24.20;4.80;;;3.60;99.90;;;;;;5042508;28;25073;-87
2023/02/24 03:16:26;;;;;;;24.90;4.47;;;3.60;99.90;;;;;;5042084;28;25073;-86
2023/02/24 03:19:03;;;;;;;24.30;3.42;;;3.60;99.90;;;;;;5042099;28;25097;-86
2023/02/24 03:21:38;;;;;;;12.02;3.13;;;3.60;99.90;;;;;;5042251;28;25082;-86
2023/02/24 03:24:07;;;;;;;20.60;3.97;;;3.60;99.90;;;;;;5059596;28;25071;-86
2023/02/24 03:26:42;;;;;;;17.42;3.63;;;3.60;99.90;;;;;;5040153;28;25137;-86
2023/02/24 03:29:22;;;;;;;14.07;2.55;;;3.60;99.90;;;;;;5059453;28;25118;-86
2023/02/24 03:32:18;;;;;;;28.70;4.13;;;3.60;99.90;;;;;;5041858;28;25051;-87
2023/02/24 03:35:07;;;;;;;16.27;2.97;;;3.60;99.90;;;;;;5059717;28;25053;-84
2023/02/24 03:37:35;;;;;;;26.13;2.97;;;3.60;99.90;;;;;;5059764;28;25065;-85
2023/02/24 03:40:10;;;;;;;33.42;4.13;;;3.60;99.90;;;;;;5041465;28;25137;-84
2023/02/24 03:42:42;;;;;;;19.23;2.70;;;3.50;99.90;;;;;;5041460;28;25071;-85
2023/02/24 03:45:11;;;;;;;18.20;3.38;;;3.50;99.90;;;;;;5059182;28;25050;-86
2023/02/24 03:47:40;;;;;;;19.27;2.88;;;3.60;99.90;;;;;;5041304;28;25056;-85
2023/02/24 03:50:18;;;;;;;17.25;2.92;;;3.60;99.90;;;;;;5041562;28;25080;-86
2023/02/24 03:53:05;;;;;;;19.23;2.97;;;3.50;99.90;;;;;;5040810;28;25123;-86
2023/02/24 03:55:44;;;;;;;15.68;2.92;;;3.50;99.90;;;;;;5051746;28;25066;-86
2023/02/24 03:58:22;;;;;;;19.52;4.13;;;3.50;99.90;;;;;;5059066;28;25077;-85
2023/02/24 04:01:08;;;;;;;20.77;3.60;;;3.50;99.90;;;;;;5059303;28;25074;-86
2023/02/24 04:03:56;;;;;;;14.52;2.72;;;3.50;99.90;;;;;;5060122;28;25077;-86
2023/02/24 04:06:34;;;;;;;18.17;3.05;;;3.50;99.90;;;;;;5058778;28;25108;-86
2023/02/24 04:09:15;;;;;;;16.88;3.20;;;3.50;99.90;;;;;;5041115;28;25067;-86
2023/02/24 04:12:05;;;;;;;16.13;2.40;;;3.50;99.90;;;;;;5041091;28;25057;-86
2023/02/24 04:14:41;;;;;;;17.77;2.78;;;3.50;99.90;;;;;;5058576;28;25111;-86
2023/02/24 04:17:27;;;;;;;13.98;2.33;;;3.40;99.90;;;;;;5058811;28;25077;-86
2023/02/24 04:19:59;;;;;;;4.15;1.75;;;3.40;99.90;;;;;;5041007;28;25075;-86
2023/02/24 04:22:28;;;;;;;16.85;2.47;;;3.40;99.90;;;;;;5040721;28;25073;-86
2023/02/24 04:24:59;;;;;;;17.33;2.50;;;3.40;99.90;;;;;;5040873;28;25112;-85
2023/02/24 04:27:28;;;;;;;16.10;3.75;;;3.40;99.90;;;;;;5040695;28;25058;-86
2023/02/24 04:29:59;;;;;;;10.07;2.55;;;3.40;99.90;;;;;;5058979;28;25073;-86
2023/02/24 04:32:29;;;;;;;10.23;2.22;;;3.30;99.90;;;;;;5058212;28;25048;-86
2023/02/24 04:35:11;;;;;;;14.75;1.73;;;3.30;99.90;;;;;;5040538;28;25076;-86
2023/02/24 04:37:39;;;;;;;3.60;0.80;;;3.30;99.90;;;;;;5058146;28;25067;-86
2023/02/24 04:40:10;;;;;;;15.52;2.58;;;3.30;99.90;;;;;;5058508;28;25063;-86
2023/02/24 04:42:48;;;;;;;7.40;1.27;;;3.20;99.90;;;;;;5040529;28;25067;-86
2023/02/24 04:45:27;;;;;;;14.18;1.73;;;3.20;99.90;;;;;;5058294;28;25075;-86
2023/02/24 04:47:59;;;;;;;9.82;1.30;;;3.20;99.90;;;;;;5039672;28;25131;-86
2023/02/24 04:50:30;;;;;;;10.38;1.52;;;3.20;99.90;;;;;;5058066;28;25095;-86
2023/02/24 04:52:59;;;;;;;7.90;1.85;;;3.10;99.90;;;;;;5040190;28;25103;-86
2023/02/24 04:55:31;;;;;;;11.13;1.63;;;3.10;99.90;;;;;;5040286;28;25105;-86
2023/02/24 04:58:01;;;;;;;8.35;1.05;;;3.10;99.90;;;;;;5040231;28;25118;-86
2023/02/24 05:00:35;;;;;;;8.40;1.23;;;3.00;99.90;;;;;;5057649;28;25049;-86
2023/02/24 05:03:13;;;;;;;9.57;1.25;;;2.90;99.90;;;;;;5057752;28;25070;-86
2023/02/24 05:05:50;;;;;;;7.40;1.30;;;2.90;99.90;;;;;;5040260;28;25086;-87
2023/02/24 05:08:19;;;;;;;5.35;0.73;;;2.80;99.90;;;;;;5057515;28;25082;-87
2023/02/24 05:10:46;;;;;;;7.05;0.73;;;2.70;99.90;;;;;;5054072;28;25067;-87
2023/02/24 05:13:26;;;;;;;8.18;0.98;;;2.60;99.90;;;;;;5056663;28;25058;-87
2023/02/24 05:15:57;;;;;;;5.30;0.80;;;2.50;99.90;;;;;;5056829;28;25076;-87
2023/02/24 05:18:25;;;;;;;5.95;0.50;;;2.40;99.90;;;;;;5056498;28;25084;-87
2023/02/24 05:23:46;;;;;;;9.82;0.95;;;2.30;99.90;;;;;;5057646;28;25125;-86
2023/02/24 05:26:18;;;;;;;7.55;1.45;;;2.20;99.90;;;;;;5057005;28;25065;-87
2023/02/24 05:28:48;;;;;;;11.05;1.05;;;2.20;99.90;;;;;;5057291;28;25072;-87
2023/02/24 05:31:28;;;;;;;5.93;1.08;;;2.10;99.90;;;;;;5056293;28;25099;-86
2023/02/24 05:34:01;;;;;;;8.15;1.27;;;2.10;99.90;;;;;;5057069;28;25127;-87
2023/02/24 05:36:32;;;;;;;10.65;1.20;;;2.00;99.90;;;;;;5056973;28;25129;-87
2023/02/24 05:39:06;;;;;;;8.93;0.80;;;2.00;99.90;;;;;;5057431;28;25071;-86
2023/02/24 05:41:37;;;;;;;10.68;1.25;;;1.90;99.90;;;;;;5057327;28;25075;-87
2023/02/24 05:44:10;;;;;;;9.27;0.95;;;1.90;99.90;;;;;;5055829;28;25101;-86
2023/02/24 05:46:39;;;;;;;7.78;1.08;;;1.90;99.90;;;;;;5056120;28;25062;-87
2023/02/24 05:49:13;;;;;;;11.15;1.15;;;1.90;99.90;;;;;;5056009;28;25063;-87
2023/02/24 05:51:53;;;;;;;15.35;1.13;;;1.90;99.90;;;;;;5056034;28;25056;-87
2023/02/24 05:54:27;;;;;;;6.20;1.02;;;2.00;99.90;;;;;;5056932;28;25052;-87
2023/02/24 05:57:07;;;;;;;3.75;1.27;;;2.00;99.90;;;;;;5057021;28;25108;-86
2023/02/24 05:59:34;;;;;;;13.90;1.85;;;2.00;99.90;;;;;;5055865;28;25097;-86
2023/02/24 06:02:05;;;;;;;9.18;0.85;;;2.00;99.90;;;;;;5055949;28;25126;-87
2023/02/24 06:05:07;;;;;;;8.70;2.13;;;2.00;99.90;;;;;;5056075;28;25082;-86
2023/02/24 06:07:33;;;;;;;5.53;1.38;;;2.10;99.90;;;;;;5054673;28;25079;-87
2023/02/24 06:10:03;;;;;;;16.13;2.58;;;2.10;99.90;;;;;;5055367;28;25137;-87
2023/02/24 06:12:32;;;;;;;7.65;1.15;;;2.10;99.90;;;;;;5056053;28;25055;-87
2023/02/24 06:15:00;;;;;;;4.43;1.27;;;2.10;99.90;;;;;;5055737;28;25063;-87
2023/02/24 06:17:28;;;;;;;7.47;1.38;;;2.10;99.90;;;;;;5057283;28;25072;-87
2023/02/24 06:19:56;;;;;;;11.73;2.10;;;2.10;99.90;;;;;;5055626;28;25121;-86
2023/02/24 06:22:25;;;;;;;8.00;0.90;;;2.10;99.90;;;;;;5056490;28;25054;-86
2023/02/24 06:24:54;;;;;;;8.13;1.05;;;2.10;99.90;;;;;;5056645;28;25074;-86
2023/02/24 06:27:23;;;;;;;3.95;0.93;;;2.10;99.90;;;;;;5055563;28;25089;-86
2023/02/24 06:29:52;;;;;;;6.57;1.30;;;2.10;99.90;;;;;;5056332;28;25090;-86
2023/02/24 06:32:22;;;;;;;5.53;0.93;;;2.10;99.90;;;;;;5055441;28;25050;-86
2023/02/24 06:34:50;;;;;;;7.20;0.90;;;2.10;99.90;;;;;;5055423;28;25066;-85
2023/02/24 06:37:17;;;;;;;4.53;0.65;;;2.10;99.90;;;;;;5055300;28;25100;-86
2023/02/24 06:39:45;;;;;;;5.68;1.48;;;2.10;99.90;;;;;;5058889;28;25071;-86
2023/02/24 06:42:13;;;;;;;6.40;0.90;;;2.10;99.90;;;;;;5060407;28;25079;-86
2023/02/24 06:44:41;;;;;;;9.38;2.08;;;2.10;99.90;;;;;;5059400;28;25066;-85
2023/02/24 06:47:12;;;;;;;5.65;0.85;;;2.10;99.90;;;;;;5059289;28;25064;-85
2023/02/24 06:49:41;;;;;;;8.30;1.10;;;2.10;99.90;;;;;;5059302;28;25102;-86
2023/02/24 06:52:09;;;;;;;7.60;1.30;;;2.10;99.90;;;;;;5059107;28;25065;-84
2023/02/24 06:54:38;;;;;;;6.38;0.93;;;2.10;99.90;;;;;;5060401;28;25134;-78
2023/02/24 06:57:08;;;;;;;7.35;1.23;;;2.10;99.90;;;;;;5059636;28;25104;-86
2023/02/24 06:59:36;;;;;;;5.28;1.13;;;2.10;99.90;;;;;;5058940;28;25117;-85
2023/02/24 07:02:03;;;;;;;3.92;0.93;;;2.10;99.90;;;;;;5059223;28;25120;-84
2023/02/24 07:04:40;;;;;;;3.65;0.80;;;2.10;99.90;;;;;;5058780;28;25077;-86
2023/02/24 07:07:09;;;;;;;5.15;1.00;;;2.20;99.90;;;;;;5058809;28;25120;-83
2023/02/24 07:09:36;;;;;;;6.22;1.25;;;2.20;99.90;;;;;;5057674;28;25094;-80
2023/02/24 07:12:03;;;;;;;8.93;2.00;;;2.20;99.90;;;;;;5060035;28;25113;-78
2023/02/24 07:14:31;;;;;;;10.30;1.33;;;2.20;99.90;;;;;;5059894;28;25077;-84
2023/02/24 07:16:59;;;;;;;6.65;1.35;;;2.30;99.90;;;;;;5042659;28;25107;-90
2023/02/24 07:19:29;;;;;;;11.40;1.23;;;2.30;99.90;;;;;;5059198;28;25058;-87
2023/02/24 07:22:02;;;;;;;6.85;1.40;;;2.30;99.90;;;;;;5058551;28;25070;-88
2023/02/24 07:24:32;;;;;;;8.73;1.65;;;2.30;99.90;;;;;;5058575;28;25056;-75
2023/02/24 07:27:05;;;;;;;6.25;2.10;;;2.40;99.90;;;;;;5059254;28;25065;-74
2023/02/24 07:29:34;;;;;;;10.68;1.83;;;2.40;99.90;;;;;;5059365;28;25052;-74
2023/02/24 07:32:04;;;;;;;7.57;2.30;;;2.50;99.90;;;;;;5059551;28;25064;-74
2023/02/24 07:34:32;;;;;;;9.52;1.55;;;2.50;99.90;;;;;;5058153;28;25073;-74
2023/02/24 07:37:06;;;;;;;9.18;1.38;;;2.50;99.90;;;;;;5059058;28;25072;-74
2023/02/24 07:39:37;;;;;;;3.78;1.50;;;2.60;99.90;;;;;;5059466;28;25096;-76
2023/02/24 07:42:06;;;;;;;7.32;1.20;;;2.60;99.90;;;;;;5058114;28;25141;-77
2023/02/24 07:44:34;;;;;;;5.60;1.30;;;2.70;99.90;;;;;;5057860;28;25066;-73
2023/02/24 07:47:06;;;;;;;14.90;1.30;;;2.70;99.90;;;;;;5058939;28;25052;-75
2023/02/24 07:49:34;;;;;;;5.03;1.25;;;2.70;99.90;;;;;;5058611;28;25106;-74
2023/02/24 07:52:02;;;;;;;4.60;1.00;;;2.70;99.90;;;;;;5057877;28;25070;-74
2023/02/24 07:54:30;;;;;;;1.48;0.52;;;2.70;99.90;;;;;;5058854;28;25125;-75
2023/02/24 07:56:58;;;;;;;4.72;1.33;;;2.80;99.90;;;;;;5059003;28;25085;-75
2023/02/24 07:59:28;;;;;;;5.72;1.08;;;2.80;99.90;;;;;;5058965;28;25138;-75
2023/02/24 08:01:56;;;;;;;6.07;1.02;;;2.80;99.90;;;;;;5058971;28;25141;-75
2023/02/24 08:04:29;;;;;;;7.82;1.70;;;2.80;99.90;;;;;;5058695;28;25111;-75
2023/02/24 08:07:01;;;;;;;5.57;1.20;;;2.80;99.90;;;;;;5057458;28;25069;-75
2023/02/24 08:12:26;;;;;;;6.05;0.80;;;2.80;99.90;;;;;;5058804;28;25055;-74
2023/02/24 08:14:59;;;;;;;8.95;1.52;;;2.80;99.90;;;;;;5058350;28;25064;-74
2023/02/24 08:17:26;;;;;;;10.73;1.02;;;2.80;99.90;;;;;;5058340;28;25096;-74
2023/02/24 08:22:43;;;;;;;3.28;0.88;;;2.90;99.90;;;;;;5058209;28;25059;-76
2023/02/24 08:25:17;;;;;;;12.13;1.30;;;2.90;99.90;;;;;;5058147;28;25056;-74
2023/02/24 08:27:54;;;;;;;7.93;0.95;;;2.90;99.90;;;;;;5058254;28;25081;-74
2023/02/24 08:30:28;;;;;;;12.38;1.58;;;2.90;99.90;;;;;;5056962;28;25069;-75
2023/02/24 08:32:57;;;;;;;3.95;1.02;;;3.00;99.90;;;;;;5058011;28;25092;-74
2023/02/24 08:35:31;;;;;;;8.05;1.60;;;3.00;99.90;;;;;;5057169;28;25071;-74
2023/02/24 08:38:13;;;;;;;14.15;1.48;;;3.00;99.90;;;;;;5057257;28;25063;-74
2023/02/24 08:40:49;;;;;;;15.25;2.03;;;3.00;99.90;;;;;;5057908;28;25063;-74
2023/02/24 08:43:23;;;;;;;;;;;3.00;99.90;;;;;;5058197;28;25065;-74
2023/02/24 08:45:55;;;;;;;10.95;1.10;;;3.00;99.90;;;;;;5058122;28;24080;-74
2023/02/24 08:48:36;;;;;;;5.72;1.65;;;3.00;99.90;;;;;;5056605;28;25052;-74
2023/02/24 08:51:27;;;;;;;4.55;1.20;;;3.00;99.90;;;;;;5057075;28;25051;-74
2023/02/24 08:53:58;;;;;;;6.95;1.55;;;3.00;99.90;;;;;;5057624;28;25085;-74
2023/02/24 08:56:35;;;;;;;9.10;1.10;;;3.00;99.90;;;;;;5057628;28;25100;-74
2023/02/24 08:59:05;;;;;;;7.97;1.45;;;3.00;99.90;;;;;;5057769;28;25059;-74
2023/02/24 09:01:37;;;;;;;12.48;1.63;;;3.00;99.90;;;;;;5056706;28;25071;-74
2023/02/24 09:04:11;;;;;;;11.63;1.38;;;3.00;99.90;;;;;;5058244;28;25106;-74
2023/02/24 09:06:43;;;;;;;7.30;1.17;;;3.10;99.90;;;;;;5057656;28;25068;-74
2023/02/24 09:09:16;;;;;;;4.82;0.75;;;3.00;99.90;;;;;;5057563;28;25075;-74
2023/02/24 09:11:56;;;;;;;5.80;1.08;;;3.00;99.90;;;;;;5057648;28;25100;-73
2023/02/24 09:14:26;;;;;;;8.18;1.15;;;3.00;99.90;;;;;;5057639;28;25064;-76
2023/02/24 09:17:01;;;;;;;8.48;2.08;;;2.90;99.90;;;;;;5057174;28;25087;-74
2023/02/24 09:22:39;;;;;;;9.57;1.98;;;2.70;99.90;;;;;;5057146;28;25092;-73
2023/02/24 09:25:39;;;;;;;8.63;1.00;;;2.60;99.90;;;;;;5058057;28;25059;-73
2023/02/24 09:28:15;;;;;;;10.05;1.38;;;2.50;99.90;;;;;;5056878;28;25101;-73
2023/02/24 09:30:53;;;;;;;7.70;2.40;;;2.50;99.90;;;;;;5057213;28;25096;-73
2023/02/24 09:33:40;;;;;;;6.80;1.52;;;2.40;99.90;;;;;;5039131;28;25077;-74
2023/02/24 09:36:28;;;;;;;8.23;3.10;;;2.40;99.90;;;;;;5056857;28;25081;-74
2023/02/24 09:44:51;;;;;;;8.20;1.67;;;2.40;99.90;;;;;;4995660;28;25075;-75
2023/02/24 09:51:04;;;;;;;4.57;1.40;;;2.40;99.90;;;;;;4995520;28;25051;-74
2023/02/24 09:53:17;;;;;;;23.25;3.45;;;2.40;99.90;;;;;;4987446;28;25068;-74
2023/02/24 09:56:02;;;;;;;5.80;1.67;;;2.40;99.90;;;;;;4996055;28;25105;-74
2023/02/24 09:59:10;;;;;;;8.73;1.60;;;2.40;99.90;;;;;;4995304;28;25075;-74
2023/02/24 10:01:46;;;;;;;6.50;1.85;;;2.40;99.90;;;;;;4995257;28;25060;-73
2023/02/24 10:04:17;;;;;;;8.35;1.95;;;2.40;99.90;;;;;;4995339;28;25063;-73
2023/02/24 10:07:21;;;;;;;6.13;1.70;;;2.40;99.90;;;;;;4979145;28;25115;-73
2023/02/24 10:10:26;;;;;;;6.43;1.88;;;2.40;99.90;;;;;;5004027;28;25152;-73
2023/02/24 10:13:29;;;;;;;4.68;1.75;;;2.40;99.90;;;;;;5015158;28;25104;-74
2023/02/24 10:16:04;;;;;;;4.82;2.00;;;2.40;99.90;;;;;;5014849;28;25062;-75
2023/02/24 10:19:16;;;;;;;12.23;2.95;;;2.40;99.90;;;;;;5032515;28;25116;-74
2023/02/24 10:22:02;;;;;;;9.52;2.65;;;2.40;99.90;;;;;;5056239;28;25089;-74
2023/02/24 10:25:00;;;;;;;8.13;2.33;;;2.40;99.90;;;;;;5055110;28;25062;-74
2023/02/24 10:27:40;;;;;;;8.95;2.65;;;2.50;99.90;;;;;;5056258;28;25061;-74
2023/02/24 10:30:26;;;;;;;9.40;2.22;;;2.50;99.90;;;;;;5056110;28;25073;-74
2023/02/24 10:33:04;;;;;;;7.25;2.58;;;2.60;99.90;;;;;;5056409;28;25057;-74
2023/02/24 10:35:35;;;;;;;12.68;2.58;;;2.60;99.90;;;;;;5056108;28;25103;-74
2023/02/24 10:38:04;;;;;;;11.18;3.45;;;2.60;99.90;;;;;;5056669;28;25099;-74
2023/02/24 10:40:45;;;;;;;7.97;3.33;;;2.60;99.90;;;;;;5056439;28;25076;-74
2023/02/24 10:43:28;;;;;;;6.72;3.00;;;2.60;99.90;;;;;;5055972;28;25098;-74
2023/02/24 10:46:05;;;;;;;7.82;2.78;;;2.50;99.90;;;;;;5056991;28;25083;-74
2023/02/24 10:48:40;;;;;;;10.20;3.40;;;2.50;99.90;;;;;;5056223;28;25132;-74
2023/02/24 10:51:30;;;;;;;9.18;2.78;;;2.50;99.90;;;;;;5056262;28;25058;-74
2023/02/24 10:57:35;;;;;;;7.63;3.63;;;2.50;99.90;;;;;;5056138;28;25054;-74
2023/02/24 11:03:24;;;;;;;8.35;3.28;;;2.50;99.90;;;;;;5056149;28;25061;-74
2023/02/24 11:08:38;;;;;;;9.20;2.88;;;2.50;99.90;;;;;;5055735;28;25099;-74
2023/02/24 11:11:28;;;;;;;11.15;3.45;;;2.40;99.90;;;;;;5055698;28;25085;-74
2023/02/24 11:20:12;;;;;;;11.15;4.32;;;2.30;99.90;;;;;;5055786;28;25056;-74
2023/02/24 11:22:44;;;;;;;8.85;3.92;;;2.30;99.90;;;;;;5055912;28;25064;-74
2023/02/24 11:25:21;;;;;;;6.65;3.40;;;2.30;99.90;;;;;;5057536;28;25121;-74
2023/02/24 11:27:49;;;;;;;10.60;4.90;;;2.30;99.90;;;;;;5059495;28;25107;-74
2023/02/24 11:30:44;;;;;;;11.13;4.63;;;2.30;99.90;;;;;;5059455;28;25125;-74
2023/02/24 11:33:41;;;;;;;6.78;4.05;;;2.30;99.90;;;;;;5059477;28;25138;-74
2023/02/24 11:36:08;;;;;;;;;;;2.20;99.90;;;;;;5059548;28;25101;-74
2023/02/24 11:38:43;;;;;;;;;;;2.20;99.90;;;;;;5059832;28;24111;-74
2023/02/24 11:41:45;;;;;;;9.00;3.53;;;2.20;99.90;;;;;;5059079;28;24101;-74
2023/02/24 11:44:34;;;;;;;8.43;3.72;;;2.20;99.90;;;;;;5009115;28;25149;-74
2023/02/24 11:47:14;;;;;;;6.93;4.45;;;2.20;99.90;;;;;;5059250;28;25121;-74
2023/02/24 11:49:53;;;;;;;8.65;3.88;;;2.10;99.90;;;;;;5059090;28;25109;-74
2023/02/24 11:52:31;;;;;;;8.48;4.88;;;2.10;99.90;;;;;;5041366;28;25047;-74
2023/02/24 11:55:02;;;;;;;8.57;3.92;;;2.00;99.90;;;;;;5041963;28;25069;-74
2023/02/24 11:57:44;;;;;;;10.10;5.15;;;2.00;99.90;;;;;;5058747;28;25055;-74
2023/02/24 12:00:23;;;;;;;8.90;3.97;;;1.90;99.90;;;;;;5058772;28;25058;-74
2023/02/24 12:03:08;;;;;;;9.73;3.92;;;1.80;99.90;;;;;;5059116;28;25079;-74
2023/02/24 12:06:04;;;;;;;9.88;4.85;;;1.80;99.90;;;;;;5058669;28;25115;-74
2023/02/24 12:08:38;;;;;;;12.60;6.07;;;1.80;99.90;;;;;;5058710;28;25085;-74
2023/02/24 12:11:32;;;;;;;8.75;4.93;;;1.70;99.90;;;;;;5057036;28;25084;-74
2023/02/24 12:14:22;;;;;;;9.55;4.45;;;1.70;99.90;;;;;;5058600;28;25118;-74
2023/02/24 12:17:06;;;;;;;6.03;4.25;;;1.70;99.90;;;;;;5057351;28;25068;-74
2023/02/24 12:20:13;;;;;;;7.53;4.32;;;1.70;99.90;;;;;;5057353;28;25055;-74
2023/02/24 12:23:06;;;;;;;6.70;4.57;;;1.70;99.90;;;;;;5044497;28;25159;-74
2023/02/24 12:26:07;;;;;;;8.30;3.88;;;1.70;99.90;;;;;;5059243;28;25072;-74
2023/02/24 12:28:48;;;;;;;4.15;2.92;;;1.80;99.90;;;;;;5058247;28;25058;-74
2023/02/24 12:31:40;;;;;;;8.40;4.80;;;1.80;99.90;;;;;;5058318;28;25049;-74
2023/02/24 12:34:41;;;;;;;5.07;3.70;;;1.80;99.90;;;;;;5057961;28;25093;-74
2023/02/24 12:37:21;;;;;;;9.15;4.03;;;1.90;99.90;;;;;;5055634;28;25063;-74
2023/02/24 12:40:01;;;;;;;5.22;3.80;;;1.90;99.90;;;;;;5057058;28;25068;-74
2023/02/24 12:42:54;;;;;;;8.18;3.28;;;2.00;99.90;;;;;;5058201;28;25059;-74
2023/02/24 12:46:11;;;;;;;6.95;3.95;;;2.00;99.90;;;;;;5056810;28;25122;-74
2023/02/24 12:48:57;;;;;;;5.07;3.40;;;2.00;99.90;;;;;;5057721;28;25063;-74
2023/02/24 12:51:24;;;;;;;10.30;4.70;;;2.00;99.90;;;;;;5059078;28;25154;-75
2023/02/24 12:54:13;;;;;;;9.10;4.43;;;2.00;99.90;;;;;;5058426;28;25143;-74
2023/02/24 12:57:06;;;;;;;5.78;3.85;;;1.90;99.90;;;;;;5056535;28;25153;-74
2023/02/24 12:59:38;;;;;;;8.25;3.95;;;1.90;99.90;;;;;;5057657;28;25079;-74
2023/02/24 13:02:25;;;;;;;9.18;4.65;;;1.90;99.90;;;;;;5057813;28;25056;-74
2023/02/24 13:05:10;;;;;;;9.98;4.68;;;1.90;99.90;;;;;;5057563;28;25050;-75
2023/02/24 13:08:05;;;;;;;6.50;4.45;;;1.90;99.90;;;;;;5058044;28;25128;-74
2023/02/24 13:10:46;;;;;;;6.80;4.85;;;1.90;99.90;;;;;;5057038;28;25060;-75
2023/02/24 13:13:35;;;;;;;8.10;5.05;;;1.90;99.90;;;;;;5057298;28;25127;-75
2023/02/24 13:16:03;;;;;;;6.07;4.30;;;1.80;99.90;;;;;;5057997;28;25134;-75
2023/02/24 13:18:34;;;;;;;8.85;4.57;;;1.80;99.90;;;;;;5056131;28;25066;-75
2023/02/24 13:21:10;;;;;;;7.15;5.22;;;1.80;99.90;;;;;;5057212;28;25068;-74
2023/02/24 13:23:52;;;;;;;9.27;5.35;;;1.70;99.90;;;;;;5057420;28;25070;-75
2023/02/24 13:26:24;;;;;;;8.77;5.25;;;1.70;99.90;;;;;;5057482;28;25054;-74
2023/02/24 13:29:13;;;;;;;12.18;5.15;;;1.80;99.90;;;;;;5056893;28;25068;-75
2023/02/24 13:31:51;;;;;;;11.30;5.35;;;1.80;99.90;;;;;;5057715;28;25063;-75
2023/02/24 13:34:41;;;;;;;7.05;4.90;;;1.70;99.90;;;;;;5056057;28;25064;-74
2023/02/24 13:37:09;;;;;;;9.48;5.50;;;1.80;99.90;;;;;;5057193;28;25092;-75
2023/02/24 13:39:46;;;;;;;9.15;5.75;;;1.80;99.90;;;;;;5056891;28;25087;-75
2023/02/24 13:42:28;;;;;;;10.25;5.80;;;1.80;99.90;;;;;;5056839;28;25078;-74
2023/02/24 13:45:12;;;;;;;8.45;5.40;;;1.80;99.90;;;;;;5055824;28;25074;-75
2023/02/24 13:48:08;;;;;;;8.77;5.00;;;1.80;99.90;;;;;;5056868;28;25072;-74
2023/02/24 13:51:13;;;;;;;9.02;6.40;;;1.90;99.90;;;;;;5055333;28;25087;-74
2023/02/24 13:54:18;;;;;;;7.90;5.28;;;1.90;99.90;;;;;;5056952;28;25077;-74
2023/02/24 13:57:05;;;;;;;7.90;5.53;;;2.00;99.90;;;;;;5056843;28;25067;-75
2023/02/24 13:59:51;;;;;;;9.55;5.85;;;2.00;99.90;;;;;;5056500;28;25105;-74
2023/02/24 14:02:29;;;;;;;7.40;5.43;;;2.10;99.90;;;;;;5057269;28;25104;-74
2023/02/24 14:05:00;;;;;;;6.53;4.50;;;2.10;99.90;;;;;;5057213;28;25060;-74
2023/02/24 14:07:38;;;;;;;8.35;5.03;;;2.20;99.90;;;;;;5056392;28;25142;-75
2023/02/24 14:10:24;;;;;;;6.85;4.47;;;2.20;99.90;;;;;;5055111;28;25067;-74
2023/02/24 14:13:03;;;;;;;6.57;4.45;;;2.20;99.90;;;;;;5056680;28;25068;-74
2023/02/24 14:15:32;;;;;;;6.18;4.18;;;2.30;99.90;;;;;;5056244;28;25067;-75
2023/02/24 14:18:03;;;;;;;8.57;4.72;;;2.30;99.90;;;;;;5056861;28;25092;-74
2023/02/24 14:20:38;;;;;;;8.20;5.63;;;2.30;99.90;;;;;;5057050;28;25098;-75